AUA9631 LOWW-LDSB
Flight info
| Callsign | AUA9631 |
|---|---|
| Flight time | 1h 15m |
| Altitude | 25000 |
| Route | STEI4B STEIN DCT NEKIN DCT KUSIB DCT SIRMI DCT SPL SPL1P |
| Aircraft | DH8D/M-SDFHIRGWY/LB2 |
Departure
| Time | 2026-05-06 14:45 |
|---|---|
| Airport | Vienna International Airport (LOWW) |
Arrival
| Time | 2026-05-06 16:00 |
|---|---|
| Airport | Brač Airport (LDSB) |
| Time | Latitude | Longitude | Altitude | Speed | Heading |
|---|---|---|---|---|---|
| 2026-05-06 14:15 | 48.11540 | 16.56790 | 608 ft | 0 kts | 206° |
| 2026-05-06 14:41 | 48.11536 | 16.56788 | 608 ft | 3 kts | 207° |
| 2026-05-06 14:41 | 48.11517 | 16.56770 | 608 ft | 0 kts | 214° |
| 2026-05-06 14:41 | 48.11475 | 16.56767 | 608 ft | 12 kts | 151° |
| 2026-05-06 14:42 | 48.11427 | 16.56890 | 608 ft | 19 kts | 116° |
| 2026-05-06 14:42 | 48.11362 | 16.57093 | 608 ft | 20 kts | 116° |
| 2026-05-06 14:42 | 48.11291 | 16.57307 | 608 ft | 25 kts | 115° |
| 2026-05-06 14:42 | 48.11218 | 16.57526 | 608 ft | 23 kts | 116° |
| 2026-05-06 14:43 | 48.11160 | 16.57715 | 608 ft | 17 kts | 115° |
| 2026-05-06 14:43 | 48.11110 | 16.57862 | 608 ft | 13 kts | 117° |
| 2026-05-06 14:43 | 48.11070 | 16.57981 | 608 ft | 13 kts | 116° |
| 2026-05-06 14:43 | 48.11014 | 16.58136 | 608 ft | 21 kts | 125° |
| 2026-05-06 14:44 | 48.10877 | 16.58280 | 608 ft | 30 kts | 159° |
| 2026-05-06 14:44 | 48.10485 | 16.58455 | 608 ft | 93 kts | 164° |
| 2026-05-06 14:44 | 48.09753 | 16.58785 | 1008 ft | 115 kts | 163° |
| 2026-05-06 14:45 | 48.08153 | 16.59464 | 2461 ft | 122 kts | 165° |
| 2026-05-06 14:45 | 48.07323 | 16.59793 | 2987 ft | 126 kts | 165° |
| 2026-05-06 14:45 | 48.06402 | 16.60158 | 3299 ft | 148 kts | 166° |
| 2026-05-06 14:45 | 48.05332 | 16.60593 | 3746 ft | 168 kts | 165° |
| 2026-05-06 14:46 | 48.04124 | 16.61098 | 4255 ft | 188 kts | 165° |
| 2026-05-06 14:46 | 48.02832 | 16.61655 | 4860 ft | 197 kts | 165° |
| 2026-05-06 14:46 | 48.01512 | 16.62235 | 5491 ft | 203 kts | 165° |
| 2026-05-06 14:46 | 48.00150 | 16.62839 | 6169 ft | 206 kts | 165° |
| 2026-05-06 14:47 | 47.98737 | 16.63265 | 6792 ft | 211 kts | 176° |
| 2026-05-06 14:47 | 47.97241 | 16.63311 | 7419 ft | 215 kts | 181° |
| 2026-05-06 14:47 | 47.95760 | 16.63259 | 8058 ft | 217 kts | 182° |
| 2026-05-06 14:47 | 47.94248 | 16.63183 | 8707 ft | 218 kts | 183° |
| 2026-05-06 14:48 | 47.92736 | 16.63095 | 9340 ft | 218 kts | 184° |
| 2026-05-06 14:48 | 47.91223 | 16.63008 | 9971 ft | 219 kts | 184° |
| 2026-05-06 14:48 | 47.89707 | 16.62936 | 10602 ft | 218 kts | 185° |
| 2026-05-06 14:48 | 47.88197 | 16.62874 | 11217 ft | 217 kts | 185° |
| 2026-05-06 14:49 | 47.86691 | 16.62811 | 11818 ft | 217 kts | 186° |
| 2026-05-06 14:49 | 47.85186 | 16.62745 | 12400 ft | 216 kts | 187° |
| 2026-05-06 14:49 | 47.83693 | 16.62659 | 12958 ft | 213 kts | 188° |
| 2026-05-06 14:49 | 47.82218 | 16.62543 | 13489 ft | 210 kts | 188° |
| 2026-05-06 14:50 | 47.80765 | 16.62416 | 14006 ft | 208 kts | 189° |
| 2026-05-06 14:50 | 47.79324 | 16.62296 | 14502 ft | 206 kts | 188° |
| 2026-05-06 14:50 | 47.77896 | 16.62177 | 14984 ft | 205 kts | 188° |
| 2026-05-06 14:50 | 47.76473 | 16.62067 | 15444 ft | 204 kts | 188° |
| 2026-05-06 14:51 | 47.75058 | 16.61966 | 15890 ft | 203 kts | 188° |
| 2026-05-06 14:51 | 47.73646 | 16.61871 | 16324 ft | 202 kts | 188° |
| 2026-05-06 14:51 | 47.72242 | 16.61782 | 16748 ft | 201 kts | 188° |
| 2026-05-06 14:51 | 47.70843 | 16.61695 | 17159 ft | 200 kts | 188° |
| 2026-05-06 14:52 | 47.69445 | 16.61609 | 17561 ft | 200 kts | 188° |
| 2026-05-06 14:52 | 47.68053 | 16.61526 | 17957 ft | 199 kts | 187° |
| 2026-05-06 14:52 | 47.66661 | 16.61440 | 18348 ft | 198 kts | 188° |
| 2026-05-06 14:52 | 47.65278 | 16.61353 | 18726 ft | 198 kts | 188° |
| 2026-05-06 14:53 | 47.63895 | 16.61269 | 19094 ft | 198 kts | 188° |
| 2026-05-06 14:53 | 47.62513 | 16.61186 | 19449 ft | 197 kts | 187° |
| 2026-05-06 14:53 | 47.61131 | 16.61097 | 19790 ft | 197 kts | 188° |
| 2026-05-06 14:53 | 47.59751 | 16.61012 | 20122 ft | 198 kts | 188° |
| 2026-05-06 14:54 | 47.58367 | 16.60930 | 20444 ft | 198 kts | 188° |
| 2026-05-06 14:54 | 47.56967 | 16.60844 | 20704 ft | 202 kts | 188° |
| 2026-05-06 14:54 | 47.55550 | 16.60754 | 20980 ft | 204 kts | 188° |
| 2026-05-06 14:54 | 47.54116 | 16.60665 | 21271 ft | 206 kts | 188° |
| 2026-05-06 14:55 | 47.52670 | 16.60577 | 21566 ft | 208 kts | 188° |
| 2026-05-06 14:55 | 47.51706 | 16.60519 | 21759 ft | 209 kts | 188° |
| 2026-05-06 14:55 | 47.49752 | 16.60399 | 22151 ft | 210 kts | 188° |
| 2026-05-06 14:55 | 47.48778 | 16.60339 | 22346 ft | 210 kts | 188° |
| 2026-05-06 14:56 | 47.47304 | 16.60248 | 22637 ft | 211 kts | 188° |
| 2026-05-06 14:56 | 47.45830 | 16.60160 | 22923 ft | 211 kts | 188° |
| 2026-05-06 14:56 | 47.44351 | 16.60071 | 23204 ft | 212 kts | 188° |
| 2026-05-06 14:56 | 47.42868 | 16.60008 | 23482 ft | 213 kts | 185° |
| 2026-05-06 14:57 | 47.41376 | 16.60079 | 23756 ft | 214 kts | 183° |
| 2026-05-06 14:57 | 47.39877 | 16.60222 | 24019 ft | 215 kts | 182° |
| 2026-05-06 14:57 | 47.38374 | 16.60389 | 24275 ft | 215 kts | 181° |
| 2026-05-06 14:57 | 47.36868 | 16.60559 | 24526 ft | 216 kts | 182° |
| 2026-05-06 14:58 | 47.35351 | 16.60729 | 24708 ft | 220 kts | 182° |
| 2026-05-06 14:58 | 47.33788 | 16.60896 | 24783 ft | 229 kts | 182° |
| 2026-05-06 14:58 | 47.32169 | 16.61061 | 24826 ft | 238 kts | 182° |
| 2026-05-06 14:58 | 47.30479 | 16.61226 | 24843 ft | 249 kts | 182° |
| 2026-05-06 14:59 | 47.28718 | 16.61397 | 24850 ft | 259 kts | 181° |
| 2026-05-06 14:59 | 47.26887 | 16.61580 | 24852 ft | 269 kts | 181° |
| 2026-05-06 14:59 | 47.24993 | 16.61775 | 24853 ft | 278 kts | 181° |
| 2026-05-06 14:59 | 47.23040 | 16.61980 | 24853 ft | 285 kts | 181° |
| 2026-05-06 15:00 | 47.21042 | 16.62189 | 24856 ft | 292 kts | 181° |
| 2026-05-06 15:00 | 47.18994 | 16.62403 | 24857 ft | 298 kts | 181° |
| 2026-05-06 15:00 | 47.16929 | 16.62619 | 24858 ft | 303 kts | 181° |
| 2026-05-06 15:00 | 47.14809 | 16.62837 | 24859 ft | 308 kts | 181° |
| 2026-05-06 15:01 | 47.12664 | 16.63053 | 24860 ft | 312 kts | 181° |
| 2026-05-06 15:01 | 47.10488 | 16.63277 | 24861 ft | 316 kts | 181° |
| 2026-05-06 15:01 | 47.08291 | 16.63505 | 24862 ft | 319 kts | 181° |
| 2026-05-06 15:01 | 47.06074 | 16.63735 | 24863 ft | 322 kts | 181° |
| 2026-05-06 15:02 | 47.03835 | 16.63966 | 24864 ft | 324 kts | 181° |
| 2026-05-06 15:02 | 47.01586 | 16.64198 | 24864 ft | 326 kts | 181° |
| 2026-05-06 15:02 | 46.99368 | 16.64426 | 24864 ft | 324 kts | 181° |
| 2026-05-06 15:02 | 46.97129 | 16.64658 | 24866 ft | 322 kts | 181° |
| 2026-05-06 15:03 | 46.94919 | 16.64886 | 24867 ft | 320 kts | 181° |
| 2026-05-06 15:03 | 46.92702 | 16.65113 | 24868 ft | 319 kts | 181° |
| 2026-05-06 15:03 | 46.90498 | 16.65335 | 24869 ft | 318 kts | 181° |
| 2026-05-06 15:03 | 46.88297 | 16.65557 | 24871 ft | 317 kts | 181° |
| 2026-05-06 15:04 | 46.86102 | 16.65779 | 24872 ft | 316 kts | 181° |
| 2026-05-06 15:04 | 46.83918 | 16.65999 | 24874 ft | 316 kts | 181° |
| 2026-05-06 15:04 | 46.81730 | 16.66220 | 24875 ft | 315 kts | 181° |
| 2026-05-06 15:04 | 46.79549 | 16.66443 | 24876 ft | 314 kts | 181° |
| 2026-05-06 15:05 | 46.77377 | 16.66663 | 24877 ft | 314 kts | 181° |
| 2026-05-06 15:05 | 46.75204 | 16.66880 | 24877 ft | 313 kts | 181° |
| 2026-05-06 15:05 | 46.73037 | 16.67096 | 24878 ft | 313 kts | 181° |
| 2026-05-06 15:05 | 46.70866 | 16.67315 | 24878 ft | 313 kts | 181° |
| 2026-05-06 15:06 | 46.68702 | 16.67534 | 24878 ft | 313 kts | 181° |
| 2026-05-06 15:06 | 46.66534 | 16.67753 | 24879 ft | 313 kts | 181° |
| 2026-05-06 15:06 | 46.64369 | 16.67970 | 24881 ft | 313 kts | 181° |
| 2026-05-06 15:06 | 46.62204 | 16.68187 | 24882 ft | 312 kts | 181° |
| 2026-05-06 15:07 | 46.60036 | 16.68403 | 24883 ft | 312 kts | 181° |
| 2026-05-06 15:07 | 46.57875 | 16.68619 | 24883 ft | 312 kts | 181° |
| 2026-05-06 15:07 | 46.55708 | 16.68837 | 24883 ft | 312 kts | 181° |
| 2026-05-06 15:07 | 46.53548 | 16.69055 | 24883 ft | 312 kts | 181° |
| 2026-05-06 15:08 | 46.51384 | 16.69270 | 24884 ft | 312 kts | 181° |
| 2026-05-06 15:08 | 46.49218 | 16.69484 | 24888 ft | 312 kts | 181° |
| 2026-05-06 15:08 | 46.47057 | 16.69699 | 24887 ft | 313 kts | 181° |
| 2026-05-06 15:08 | 46.44890 | 16.69918 | 24888 ft | 313 kts | 181° |
| 2026-05-06 15:09 | 46.42737 | 16.70134 | 24889 ft | 313 kts | 181° |
| 2026-05-06 15:09 | 46.40576 | 16.70282 | 24888 ft | 311 kts | 185° |
| 2026-05-06 15:09 | 46.39313 | 16.70193 | 24889 ft | 309 kts | 189° |
| 2026-05-06 15:10 | 46.39142 | 16.70169 | 24892 ft | 305 kts | 190° |
| 2026-05-06 15:10 | 46.37015 | 16.69748 | 24888 ft | 305 kts | 193° |
| 2026-05-06 15:10 | 46.34930 | 16.69279 | 24890 ft | 305 kts | 193° |
| 2026-05-06 15:11 | 46.32830 | 16.68836 | 24890 ft | 306 kts | 192° |
| 2026-05-06 15:11 | 46.30748 | 16.68430 | 24891 ft | 306 kts | 192° |
| 2026-05-06 15:11 | 46.28613 | 16.68036 | 24891 ft | 307 kts | 192° |
| 2026-05-06 15:11 | 46.26523 | 16.67655 | 24892 ft | 307 kts | 192° |
| 2026-05-06 15:12 | 46.24409 | 16.67269 | 24892 ft | 307 kts | 192° |
| 2026-05-06 15:12 | 46.22296 | 16.66880 | 24893 ft | 307 kts | 192° |
| 2026-05-06 15:12 | 46.20191 | 16.66487 | 24894 ft | 307 kts | 192° |
| 2026-05-06 15:12 | 46.18076 | 16.66091 | 24894 ft | 307 kts | 192° |
| 2026-05-06 15:13 | 46.15959 | 16.65693 | 24895 ft | 307 kts | 192° |
| 2026-05-06 15:13 | 46.13843 | 16.65268 | 24896 ft | 307 kts | 191° |
| 2026-05-06 15:13 | 46.11737 | 16.64831 | 24896 ft | 307 kts | 191° |
| 2026-05-06 15:13 | 46.09628 | 16.64427 | 24897 ft | 307 kts | 190° |
| 2026-05-06 15:14 | 46.07514 | 16.64055 | 24897 ft | 307 kts | 190° |
| 2026-05-06 15:14 | 46.05403 | 16.63695 | 24898 ft | 306 kts | 190° |
| 2026-05-06 15:14 | 46.03289 | 16.63328 | 24899 ft | 306 kts | 190° |
| 2026-05-06 15:14 | 46.01181 | 16.62950 | 24899 ft | 306 kts | 190° |
| 2026-05-06 15:15 | 45.99076 | 16.62562 | 24900 ft | 306 kts | 190° |
| 2026-05-06 15:15 | 45.96972 | 16.62173 | 24900 ft | 306 kts | 190° |
| 2026-05-06 15:15 | 45.94863 | 16.61783 | 24901 ft | 306 kts | 191° |
| 2026-05-06 15:15 | 45.92762 | 16.61392 | 24902 ft | 306 kts | 191° |
| 2026-05-06 15:16 | 45.90658 | 16.61000 | 24902 ft | 306 kts | 191° |
| 2026-05-06 15:16 | 45.88553 | 16.60609 | 24904 ft | 306 kts | 191° |
| 2026-05-06 15:16 | 45.86444 | 16.60217 | 24906 ft | 306 kts | 191° |
| 2026-05-06 15:16 | 45.84340 | 16.59829 | 24907 ft | 306 kts | 191° |
| 2026-05-06 15:17 | 45.82237 | 16.59441 | 24908 ft | 306 kts | 190° |
| 2026-05-06 15:17 | 45.80132 | 16.59054 | 24908 ft | 306 kts | 190° |
| 2026-05-06 15:17 | 45.78030 | 16.58667 | 24908 ft | 306 kts | 190° |
| 2026-05-06 15:17 | 45.75922 | 16.58280 | 24908 ft | 306 kts | 190° |
| 2026-05-06 15:18 | 45.73816 | 16.57893 | 24909 ft | 306 kts | 190° |
| 2026-05-06 15:18 | 45.71714 | 16.57507 | 24909 ft | 306 kts | 191° |
| 2026-05-06 15:18 | 45.69616 | 16.57124 | 24910 ft | 306 kts | 191° |
| 2026-05-06 15:18 | 45.67505 | 16.56737 | 24910 ft | 306 kts | 191° |
| 2026-05-06 15:19 | 45.65399 | 16.56352 | 24912 ft | 306 kts | 190° |
| 2026-05-06 15:19 | 45.63292 | 16.55967 | 24912 ft | 306 kts | 191° |
| 2026-05-06 15:19 | 45.61186 | 16.55579 | 24912 ft | 306 kts | 191° |
| 2026-05-06 15:19 | 45.59079 | 16.55192 | 24912 ft | 306 kts | 191° |
| 2026-05-06 15:20 | 45.56973 | 16.54808 | 24912 ft | 306 kts | 191° |
| 2026-05-06 15:20 | 45.54866 | 16.54425 | 24912 ft | 306 kts | 191° |
| 2026-05-06 15:20 | 45.52763 | 16.54043 | 24913 ft | 306 kts | 191° |
| 2026-05-06 15:20 | 45.50650 | 16.53658 | 24913 ft | 306 kts | 191° |
| 2026-05-06 15:21 | 45.48550 | 16.53274 | 24913 ft | 306 kts | 191° |
| 2026-05-06 15:21 | 45.46440 | 16.52890 | 24913 ft | 306 kts | 191° |
| 2026-05-06 15:21 | 45.44335 | 16.52509 | 24913 ft | 306 kts | 191° |
| 2026-05-06 15:21 | 45.42231 | 16.52128 | 24913 ft | 306 kts | 191° |
| 2026-05-06 15:22 | 45.40121 | 16.51744 | 24913 ft | 305 kts | 191° |
| 2026-05-06 15:22 | 45.38049 | 16.51367 | 24914 ft | 305 kts | 191° |
| 2026-05-06 15:22 | 45.35948 | 16.50988 | 24914 ft | 305 kts | 191° |
| 2026-05-06 15:22 | 45.33846 | 16.50610 | 24914 ft | 305 kts | 191° |
| 2026-05-06 15:23 | 45.31747 | 16.50231 | 24914 ft | 305 kts | 191° |
| 2026-05-06 15:23 | 45.29651 | 16.49852 | 24915 ft | 305 kts | 191° |
| 2026-05-06 15:23 | 45.27555 | 16.49472 | 24915 ft | 305 kts | 191° |
| 2026-05-06 15:23 | 45.25452 | 16.49090 | 24915 ft | 305 kts | 191° |
| 2026-05-06 15:24 | 45.23361 | 16.48710 | 24915 ft | 304 kts | 191° |
| 2026-05-06 15:24 | 45.21263 | 16.48332 | 24916 ft | 304 kts | 191° |
| 2026-05-06 15:24 | 45.19167 | 16.47955 | 24916 ft | 304 kts | 191° |
| 2026-05-06 15:24 | 45.17073 | 16.47577 | 24916 ft | 304 kts | 191° |
| 2026-05-06 15:25 | 45.14978 | 16.47200 | 24917 ft | 304 kts | 191° |
| 2026-05-06 15:25 | 45.12874 | 16.46829 | 24917 ft | 305 kts | 191° |
| 2026-05-06 15:25 | 45.10779 | 16.46469 | 24918 ft | 305 kts | 191° |
| 2026-05-06 15:25 | 45.08679 | 16.46113 | 24918 ft | 305 kts | 191° |
| 2026-05-06 15:26 | 45.06581 | 16.45759 | 24918 ft | 305 kts | 190° |
| 2026-05-06 15:26 | 45.04479 | 16.45406 | 24919 ft | 305 kts | 191° |
| 2026-05-06 15:26 | 45.02380 | 16.45052 | 24919 ft | 305 kts | 191° |
| 2026-05-06 15:26 | 45.00276 | 16.44693 | 24920 ft | 305 kts | 191° |
| 2026-05-06 15:27 | 44.98181 | 16.44332 | 24920 ft | 305 kts | 191° |
| 2026-05-06 15:27 | 44.96081 | 16.43972 | 24920 ft | 305 kts | 191° |
| 2026-05-06 15:27 | 44.93985 | 16.43615 | 24921 ft | 305 kts | 191° |
| 2026-05-06 15:27 | 44.91885 | 16.43258 | 24923 ft | 305 kts | 191° |
| 2026-05-06 15:28 | 44.89789 | 16.42902 | 24929 ft | 304 kts | 191° |
| 2026-05-06 15:28 | 44.87693 | 16.42549 | 24932 ft | 304 kts | 191° |
| 2026-05-06 15:28 | 44.85592 | 16.42194 | 24934 ft | 304 kts | 191° |
| 2026-05-06 15:28 | 44.83498 | 16.41841 | 24935 ft | 304 kts | 191° |
| 2026-05-06 15:29 | 44.81404 | 16.41489 | 24936 ft | 304 kts | 191° |
| 2026-05-06 15:29 | 44.79308 | 16.41133 | 24938 ft | 304 kts | 191° |
| 2026-05-06 15:29 | 44.77211 | 16.40775 | 24939 ft | 304 kts | 191° |
| 2026-05-06 15:29 | 44.75118 | 16.40417 | 24940 ft | 304 kts | 191° |
| 2026-05-06 15:30 | 44.73048 | 16.40065 | 24941 ft | 304 kts | 191° |
| 2026-05-06 15:30 | 44.70956 | 16.39711 | 24942 ft | 304 kts | 191° |
| 2026-05-06 15:30 | 44.68859 | 16.39356 | 24944 ft | 304 kts | 191° |
| 2026-05-06 15:30 | 44.66765 | 16.39006 | 24945 ft | 304 kts | 191° |
| 2026-05-06 15:31 | 44.64671 | 16.38660 | 24947 ft | 304 kts | 191° |
| 2026-05-06 15:31 | 44.62576 | 16.38311 | 24948 ft | 304 kts | 192° |
| 2026-05-06 15:31 | 44.60485 | 16.37957 | 24950 ft | 304 kts | 192° |
| 2026-05-06 15:32 | 44.56304 | 16.37247 | 24953 ft | 304 kts | 192° |
| 2026-05-06 15:32 | 44.54206 | 16.36893 | 24955 ft | 304 kts | 192° |
| 2026-05-06 15:32 | 44.52114 | 16.36542 | 24957 ft | 304 kts | 192° |
| 2026-05-06 15:32 | 44.50027 | 16.36192 | 24959 ft | 304 kts | 192° |
| 2026-05-06 15:33 | 44.47934 | 16.35842 | 24961 ft | 304 kts | 192° |
| 2026-05-06 15:33 | 44.45841 | 16.35495 | 24963 ft | 303 kts | 191° |
| 2026-05-06 15:33 | 44.43751 | 16.35151 | 24965 ft | 303 kts | 191° |
| 2026-05-06 15:33 | 44.41661 | 16.34803 | 24966 ft | 303 kts | 192° |
| 2026-05-06 15:34 | 44.39572 | 16.34452 | 24970 ft | 303 kts | 192° |
| 2026-05-06 15:34 | 44.38188 | 16.34219 | 24971 ft | 303 kts | 192° |
| 2026-05-06 15:34 | 44.36099 | 16.33868 | 24974 ft | 303 kts | 192° |
| 2026-05-06 15:34 | 44.34015 | 16.33519 | 24976 ft | 303 kts | 192° |
| 2026-05-06 15:35 | 44.31921 | 16.33169 | 24978 ft | 303 kts | 192° |
| 2026-05-06 15:35 | 44.29834 | 16.32822 | 24980 ft | 303 kts | 192° |
| 2026-05-06 15:35 | 44.27746 | 16.32475 | 24982 ft | 303 kts | 192° |
| 2026-05-06 15:35 | 44.25658 | 16.32129 | 24985 ft | 303 kts | 191° |
| 2026-05-06 15:36 | 44.23570 | 16.31782 | 24987 ft | 303 kts | 191° |
| 2026-05-06 15:36 | 44.21481 | 16.31434 | 24989 ft | 303 kts | 192° |
| 2026-05-06 15:36 | 44.19398 | 16.31089 | 24991 ft | 303 kts | 192° |
| 2026-05-06 15:36 | 44.17309 | 16.30744 | 24994 ft | 303 kts | 192° |
| 2026-05-06 15:37 | 44.15218 | 16.30412 | 24996 ft | 303 kts | 190° |
| 2026-05-06 15:37 | 44.13110 | 16.30262 | 24997 ft | 306 kts | 186° |
| 2026-05-06 15:37 | 44.10979 | 16.30274 | 24932 ft | 308 kts | 185° |
| 2026-05-06 15:37 | 44.08805 | 16.30317 | 24444 ft | 317 kts | 185° |
| 2026-05-06 15:38 | 44.06605 | 16.30353 | 23979 ft | 317 kts | 185° |
| 2026-05-06 15:38 | 44.04415 | 16.30373 | 23521 ft | 316 kts | 185° |
| 2026-05-06 15:38 | 44.02254 | 16.30380 | 23054 ft | 315 kts | 185° |
| 2026-05-06 15:38 | 44.00068 | 16.30380 | 22580 ft | 315 kts | 185° |
| 2026-05-06 15:39 | 43.97901 | 16.30380 | 22117 ft | 315 kts | 185° |
| 2026-05-06 15:39 | 43.95720 | 16.30383 | 21655 ft | 314 kts | 185° |
| 2026-05-06 15:39 | 43.93545 | 16.30386 | 21197 ft | 313 kts | 185° |
| 2026-05-06 15:39 | 43.91373 | 16.30388 | 20741 ft | 313 kts | 185° |
| 2026-05-06 15:40 | 43.89204 | 16.30392 | 20286 ft | 312 kts | 184° |
| 2026-05-06 15:40 | 43.87053 | 16.30397 | 19833 ft | 309 kts | 184° |
| 2026-05-06 15:40 | 43.84921 | 16.30403 | 19386 ft | 305 kts | 184° |
| 2026-05-06 15:40 | 43.82826 | 16.30409 | 18947 ft | 300 kts | 184° |
| 2026-05-06 15:41 | 43.80757 | 16.30415 | 18513 ft | 296 kts | 184° |
| 2026-05-06 15:41 | 43.79365 | 16.30419 | 18221 ft | 293 kts | 184° |
| 2026-05-06 15:41 | 43.76720 | 16.30424 | 17667 ft | 287 kts | 184° |
| 2026-05-06 15:41 | 43.74747 | 16.30429 | 17255 ft | 282 kts | 184° |
| 2026-05-06 15:42 | 43.72817 | 16.30432 | 16850 ft | 278 kts | 184° |
| 2026-05-06 15:42 | 43.70906 | 16.30431 | 16450 ft | 274 kts | 184° |
| 2026-05-06 15:42 | 43.69022 | 16.30432 | 16055 ft | 270 kts | 184° |
| 2026-05-06 15:42 | 43.67163 | 16.30435 | 15666 ft | 266 kts | 184° |
| 2026-05-06 15:43 | 43.65330 | 16.30439 | 15281 ft | 263 kts | 184° |
| 2026-05-06 15:43 | 43.63523 | 16.30438 | 14902 ft | 259 kts | 184° |
| 2026-05-06 15:43 | 43.61734 | 16.30438 | 14534 ft | 261 kts | 184° |
| 2026-05-06 15:43 | 43.59901 | 16.30437 | 14151 ft | 267 kts | 184° |
| 2026-05-06 15:44 | 43.58041 | 16.30436 | 13760 ft | 273 kts | 183° |
| 2026-05-06 15:44 | 43.56130 | 16.30436 | 13371 ft | 278 kts | 182° |
| 2026-05-06 15:44 | 43.54252 | 16.30941 | 13283 ft | 277 kts | 162° |
| 2026-05-06 15:44 | 43.52580 | 16.32290 | 12988 ft | 284 kts | 145° |
| 2026-05-06 15:45 | 43.51229 | 16.34338 | 12530 ft | 296 kts | 127° |
| 2026-05-06 15:45 | 43.50336 | 16.36912 | 11980 ft | 310 kts | 111° |
| 2026-05-06 15:45 | 43.49855 | 16.39871 | 11366 ft | 322 kts | 101° |
| 2026-05-06 15:45 | 43.49671 | 16.43001 | 10730 ft | 332 kts | 95° |
| 2026-05-06 15:46 | 43.49614 | 16.46123 | 10099 ft | 319 kts | 93° |
| 2026-05-06 15:46 | 43.49612 | 16.49110 | 9506 ft | 305 kts | 92° |
| 2026-05-06 15:46 | 43.49539 | 16.51931 | 9209 ft | 281 kts | 101° |
| 2026-05-06 15:46 | 43.48960 | 16.54391 | 8934 ft | 265 kts | 122° |
| 2026-05-06 15:47 | 43.47842 | 16.56339 | 8542 ft | 258 kts | 140° |
| 2026-05-06 15:47 | 43.46431 | 16.57819 | 8095 ft | 255 kts | 150° |
| 2026-05-06 15:47 | 43.44905 | 16.58993 | 7787 ft | 247 kts | 155° |
| 2026-05-06 15:47 | 43.43404 | 16.60013 | 7628 ft | 235 kts | 157° |
| 2026-05-06 15:48 | 43.41944 | 16.60926 | 7471 ft | 225 kts | 159° |
| 2026-05-06 15:48 | 43.40529 | 16.61745 | 7316 ft | 217 kts | 160° |
| 2026-05-06 15:48 | 43.39139 | 16.62497 | 7166 ft | 213 kts | 161° |
| 2026-05-06 15:48 | 43.37749 | 16.63216 | 7017 ft | 214 kts | 161° |
| 2026-05-06 15:49 | 43.36350 | 16.63927 | 6865 ft | 215 kts | 161° |
| 2026-05-06 15:49 | 43.34948 | 16.64637 | 6706 ft | 216 kts | 162° |
| 2026-05-06 15:49 | 43.33567 | 16.65342 | 6541 ft | 203 kts | 162° |
| 2026-05-06 15:49 | 43.32324 | 16.65991 | 6431 ft | 179 kts | 162° |
| 2026-05-06 15:50 | 43.31267 | 16.66549 | 6313 ft | 156 kts | 162° |
| 2026-05-06 15:50 | 43.30276 | 16.67065 | 6190 ft | 151 kts | 162° |
| 2026-05-06 15:50 | 43.29360 | 16.67761 | 6086 ft | 152 kts | 144° |
| 2026-05-06 15:50 | 43.28650 | 16.68812 | 5953 ft | 154 kts | 133° |
| 2026-05-06 15:51 | 43.27971 | 16.70025 | 5617 ft | 167 kts | 131° |
| 2026-05-06 15:51 | 43.27257 | 16.71351 | 5249 ft | 177 kts | 130° |
| 2026-05-06 15:51 | 43.26562 | 16.72698 | 4863 ft | 169 kts | 129° |
| 2026-05-06 15:51 | 43.25922 | 16.74006 | 4484 ft | 162 kts | 128° |
| 2026-05-06 15:52 | 43.25327 | 16.75261 | 4141 ft | 152 kts | 127° |
| 2026-05-06 15:52 | 43.25026 | 16.76615 | 3986 ft | 150 kts | 92° |
| 2026-05-06 15:52 | 43.25339 | 16.77946 | 3972 ft | 147 kts | 66° |
| 2026-05-06 15:52 | 43.25938 | 16.79110 | 3989 ft | 151 kts | 56° |
| 2026-05-06 15:53 | 43.26655 | 16.80187 | 3995 ft | 154 kts | 50° |
| 2026-05-06 15:53 | 43.27444 | 16.81210 | 3998 ft | 157 kts | 46° |
| 2026-05-06 15:53 | 43.28282 | 16.82189 | 3998 ft | 160 kts | 43° |
| 2026-05-06 15:53 | 43.29165 | 16.83133 | 4001 ft | 162 kts | 41° |
| 2026-05-06 15:54 | 43.30087 | 16.84055 | 3994 ft | 164 kts | 39° |
| 2026-05-06 15:54 | 43.31033 | 16.84953 | 3997 ft | 166 kts | 38° |
| 2026-05-06 15:54 | 43.32021 | 16.85801 | 3975 ft | 171 kts | 28° |
| 2026-05-06 15:54 | 43.33178 | 16.85987 | 3648 ft | 168 kts | 347° |
| 2026-05-06 15:55 | 43.34168 | 16.85278 | 3273 ft | 160 kts | 317° |
| 2026-05-06 15:55 | 43.34913 | 16.84153 | 3065 ft | 156 kts | 303° |
| 2026-05-06 15:55 | 43.35491 | 16.82943 | 2992 ft | 149 kts | 296° |
| 2026-05-06 15:55 | 43.36010 | 16.81678 | 3000 ft | 153 kts | 294° |
| 2026-05-06 15:56 | 43.36508 | 16.80349 | 3000 ft | 157 kts | 291° |
| 2026-05-06 15:56 | 43.36944 | 16.79003 | 2966 ft | 149 kts | 281° |
| 2026-05-06 15:56 | 43.36910 | 16.77668 | 2836 ft | 130 kts | 242° |
| 2026-05-06 15:56 | 43.36456 | 16.76693 | 2782 ft | 112 kts | 220° |
| 2026-05-06 15:57 | 43.35907 | 16.75928 | 2776 ft | 108 kts | 216° |
| 2026-05-06 15:57 | 43.35362 | 16.75219 | 2762 ft | 104 kts | 213° |
| 2026-05-06 15:57 | 43.34708 | 16.74653 | 2819 ft | 115 kts | 203° |
| 2026-05-06 15:57 | 43.34049 | 16.73973 | 2816 ft | 122 kts | 216° |
| 2026-05-06 15:58 | 43.33431 | 16.73151 | 2807 ft | 123 kts | 217° |
| 2026-05-06 15:58 | 43.32833 | 16.72371 | 2605 ft | 116 kts | 214° |
| 2026-05-06 15:58 | 43.32235 | 16.71662 | 2379 ft | 116 kts | 212° |
| 2026-05-06 15:58 | 43.31593 | 16.70959 | 2315 ft | 120 kts | 214° |
| 2026-05-06 15:59 | 43.30923 | 16.70216 | 2224 ft | 123 kts | 212° |
| 2026-05-06 15:59 | 43.30239 | 16.69557 | 2052 ft | 116 kts | 207° |
| 2026-05-06 15:59 | 43.29574 | 16.68935 | 1871 ft | 112 kts | 208° |
| 2026-05-06 15:59 | 43.28925 | 16.68310 | 1737 ft | 112 kts | 208° |
| 2026-05-06 16:00 | 43.28363 | 16.67780 | 1759 ft | 61 kts | 211° |
| 2026-05-06 16:00 | 43.28230 | 16.67646 | 1768 ft | 19 kts | 225° |
| 2026-05-06 16:00 | 43.28192 | 16.67602 | 1770 ft | 2 kts | 173° |
| 2026-05-06 16:00 | 43.28218 | 16.67657 | 1768 ft | 15 kts | 30° |
| 2026-05-06 16:01 | 43.28347 | 16.67763 | 1761 ft | 28 kts | 35° |
| 2026-05-06 16:01 | 43.28505 | 16.67913 | 1751 ft | 27 kts | 35° |
| 2026-05-06 16:01 | 43.28646 | 16.68048 | 1740 ft | 20 kts | 37° |
| 2026-05-06 16:01 | 43.28725 | 16.68042 | 1738 ft | 9 kts | 309° |
| 2026-05-06 16:02 | 43.28761 | 16.67992 | 1738 ft | 7 kts | 332° |
| 2026-05-06 16:02 | 43.28779 | 16.67973 | 1738 ft | 1 kts | 303° |
| 2026-05-06 16:02 | 43.28791 | 16.67941 | 1738 ft | 6 kts | 302° |
| 2026-05-06 16:02 | 43.28803 | 16.67933 | 1738 ft | 2 kts | 0° |
| 2026-05-06 16:03 | 43.28812 | 16.67946 | 1738 ft | 3 kts | 72° |
| 2026-05-06 16:03 | 43.28812 | 16.67948 | 1738 ft | 0 kts | 81° |